臺北飛航情報區 - 掃描席(區管/近場)

METAR RCTP 262330Z 02012KT 3500 -RA BR SCT003 BKN005 BKN010 15/14 Q1015 NOSIG RMK A2999=

站台狀態:Online
最後更新:2021-02-27 07:30:02